sensor_id;sensor_type;location;lat;lon;timestamp;P1;durP1;ratioP1;P2;durP2;ratioP2
21890;SDS011;11110;52.386;16.940;2023-05-10T00:04:57;26.90;;;7.13;;
21890;SDS011;11110;52.386;16.940;2023-05-10T00:07:25;51.33;;;10.37;;
21890;SDS011;11110;52.386;16.940;2023-05-10T00:09:54;58.37;;;10.97;;
21890;SDS011;11110;52.386;16.940;2023-05-10T00:12:22;51.80;;;10.30;;
21890;SDS011;11110;52.386;16.940;2023-05-10T00:14:51;60.33;;;11.03;;
21890;SDS011;11110;52.386;16.940;2023-05-10T00:17:19;37.40;;;8.43;;
21890;SDS011;11110;52.386;16.940;2023-05-10T00:19:47;30.97;;;7.60;;
21890;SDS011;11110;52.386;16.940;2023-05-10T00:22:17;28.27;;;6.37;;
21890;SDS011;11110;52.386;16.940;2023-05-10T00:24:46;34.90;;;7.63;;
21890;SDS011;11110;52.386;16.940;2023-05-10T00:27:14;30.87;;;7.47;;
21890;SDS011;11110;52.386;16.940;2023-05-10T00:29:43;27.43;;;6.93;;
21890;SDS011;11110;52.386;16.940;2023-05-10T00:32:11;26.20;;;7.10;;
21890;SDS011;11110;52.386;16.940;2023-05-10T00:34:41;25.00;;;6.30;;
21890;SDS011;11110;52.386;16.940;2023-05-10T00:37:09;26.30;;;6.73;;
21890;SDS011;11110;52.386;16.940;2023-05-10T00:39:39;21.33;;;5.77;;
21890;SDS011;11110;52.386;16.940;2023-05-10T00:42:07;24.20;;;6.53;;
21890;SDS011;11110;52.386;16.940;2023-05-10T00:44:36;24.73;;;6.77;;
21890;SDS011;11110;52.386;16.940;2023-05-10T00:47:05;24.63;;;6.40;;
21890;SDS011;11110;52.386;16.940;2023-05-10T00:49:34;29.73;;;7.20;;
21890;SDS011;11110;52.386;16.940;2023-05-10T00:52:03;28.57;;;6.97;;
21890;SDS011;11110;52.386;16.940;2023-05-10T00:54:32;23.00;;;6.23;;
21890;SDS011;11110;52.386;16.940;2023-05-10T00:57:02;34.20;;;7.13;;
21890;SDS011;11110;52.386;16.940;2023-05-10T00:59:31;24.60;;;6.40;;
21890;SDS011;11110;52.386;16.940;2023-05-10T01:02:00;21.80;;;6.73;;
21890;SDS011;11110;52.386;16.940;2023-05-10T01:04:30;26.40;;;7.10;;
21890;SDS011;11110;52.386;16.940;2023-05-10T01:06:58;37.10;;;8.20;;
21890;SDS011;11110;52.386;16.940;2023-05-10T01:09:27;24.67;;;6.70;;
21890;SDS011;11110;52.386;16.940;2023-05-10T01:11:56;28.57;;;6.77;;
21890;SDS011;11110;52.386;16.940;2023-05-10T01:14:26;28.23;;;7.13;;
21890;SDS011;11110;52.386;16.940;2023-05-10T01:16:55;24.37;;;6.73;;
21890;SDS011;11110;52.386;16.940;2023-05-10T01:19:25;26.10;;;6.53;;
21890;SDS011;11110;52.386;16.940;2023-05-10T01:21:57;21.37;;;6.00;;
21890;SDS011;11110;52.386;16.940;2023-05-10T01:24:44;26.90;;;6.77;;
21890;SDS011;11110;52.386;16.940;2023-05-10T01:33:36;28.90;;;7.20;;
21890;SDS011;11110;52.386;16.940;2023-05-10T01:36:12;25.27;;;7.00;;
21890;SDS011;11110;52.386;16.940;2023-05-10T01:38:47;31.33;;;7.87;;
21890;SDS011;11110;52.386;16.940;2023-05-10T01:41:19;20.70;;;5.80;;
21890;SDS011;11110;52.386;16.940;2023-05-10T01:44:00;32.40;;;7.50;;
21890;SDS011;11110;52.386;16.940;2023-05-10T01:46:37;23.57;;;6.63;;
21890;SDS011;11110;52.386;16.940;2023-05-10T01:49:09;29.63;;;7.07;;
21890;SDS011;11110;52.386;16.940;2023-05-10T01:51:44;28.00;;;6.77;;
21890;SDS011;11110;52.386;16.940;2023-05-10T01:54:15;28.50;;;7.70;;
21890;SDS011;11110;52.386;16.940;2023-05-10T01:56:47;21.97;;;6.10;;
21890;SDS011;11110;52.386;16.940;2023-05-10T01:59:22;30.03;;;7.37;;
21890;SDS011;11110;52.386;16.940;2023-05-10T02:01:57;28.57;;;7.40;;
21890;SDS011;11110;52.386;16.940;2023-05-10T02:04:28;26.60;;;7.17;;
21890;SDS011;11110;52.386;16.940;2023-05-10T02:06:57;17.63;;;5.77;;
21890;SDS011;11110;52.386;16.940;2023-05-10T02:09:25;21.37;;;5.90;;
21890;SDS011;11110;52.386;16.940;2023-05-10T02:11:57;50.77;;;9.97;;
21890;SDS011;11110;52.386;16.940;2023-05-10T02:14:27;55.53;;;10.43;;
21890;SDS011;11110;52.386;16.940;2023-05-10T02:16:56;54.10;;;10.67;;
21890;SDS011;11110;52.386;16.940;2023-05-10T02:19:29;31.60;;;7.83;;
21890;SDS011;11110;52.386;16.940;2023-05-10T02:21:59;24.23;;;6.97;;
21890;SDS011;11110;52.386;16.940;2023-05-10T02:24:31;24.97;;;7.10;;
21890;SDS011;11110;52.386;16.940;2023-05-10T02:27:02;32.07;;;7.83;;
21890;SDS011;11110;52.386;16.940;2023-05-10T02:29:31;19.03;;;6.37;;
21890;SDS011;11110;52.386;16.940;2023-05-10T02:32:01;19.53;;;6.23;;
21890;SDS011;11110;52.386;16.940;2023-05-10T02:34:32;30.43;;;8.10;;
21890;SDS011;11110;52.386;16.940;2023-05-10T02:37:01;31.17;;;7.30;;
21890;SDS011;11110;52.386;16.940;2023-05-10T02:39:32;22.10;;;6.30;;
21890;SDS011;11110;52.386;16.940;2023-05-10T02:42:00;45.40;;;9.47;;
21890;SDS011;11110;52.386;16.940;2023-05-10T02:44:30;24.53;;;6.30;;
21890;SDS011;11110;52.386;16.940;2023-05-10T02:47:00;17.87;;;5.47;;
21890;SDS011;11110;52.386;16.940;2023-05-10T02:49:28;30.47;;;7.03;;
21890;SDS011;11110;52.386;16.940;2023-05-10T02:52:00;28.43;;;7.47;;
21890;SDS011;11110;52.386;16.940;2023-05-10T02:54:34;26.20;;;7.07;;
21890;SDS011;11110;52.386;16.940;2023-05-10T02:57:14;27.43;;;7.33;;
21890;SDS011;11110;52.386;16.940;2023-05-10T02:59:46;29.27;;;7.43;;
21890;SDS011;11110;52.386;16.940;2023-05-10T03:02:14;28.20;;;7.00;;
21890;SDS011;11110;52.386;16.940;2023-05-10T03:04:44;24.63;;;6.93;;
21890;SDS011;11110;52.386;16.940;2023-05-10T03:07:14;21.87;;;6.40;;
21890;SDS011;11110;52.386;16.940;2023-05-10T03:09:43;26.37;;;7.20;;
21890;SDS011;11110;52.386;16.940;2023-05-10T03:12:14;25.27;;;6.40;;
21890;SDS011;11110;52.386;16.940;2023-05-10T03:14:53;29.20;;;7.40;;
21890;SDS011;11110;52.386;16.940;2023-05-10T03:17:35;27.70;;;7.20;;
21890;SDS011;11110;52.386;16.940;2023-05-10T03:20:09;25.77;;;7.23;;
21890;SDS011;11110;52.386;16.940;2023-05-10T03:22:44;21.80;;;7.03;;
21890;SDS011;11110;52.386;16.940;2023-05-10T03:25:16;26.43;;;7.33;;
21890;SDS011;11110;52.386;16.940;2023-05-10T03:27:46;28.97;;;8.27;;
21890;SDS011;11110;52.386;16.940;2023-05-10T03:30:15;30.43;;;7.33;;
21890;SDS011;11110;52.386;16.940;2023-05-10T03:32:45;30.70;;;7.93;;
21890;SDS011;11110;52.386;16.940;2023-05-10T03:35:15;20.67;;;6.37;;
21890;SDS011;11110;52.386;16.940;2023-05-10T03:37:45;24.20;;;6.60;;
21890;SDS011;11110;52.386;16.940;2023-05-10T03:40:14;18.33;;;6.00;;
21890;SDS011;11110;52.386;16.940;2023-05-10T03:42:44;28.33;;;7.37;;
21890;SDS011;11110;52.386;16.940;2023-05-10T03:45:12;28.23;;;7.47;;
21890;SDS011;11110;52.386;16.940;2023-05-10T03:47:41;25.50;;;6.50;;
21890;SDS011;11110;52.386;16.940;2023-05-10T03:50:09;27.73;;;7.30;;
21890;SDS011;11110;52.386;16.940;2023-05-10T03:52:38;25.37;;;6.63;;
21890;SDS011;11110;52.386;16.940;2023-05-10T03:55:08;20.83;;;6.37;;
21890;SDS011;11110;52.386;16.940;2023-05-10T03:57:37;22.93;;;6.30;;
21890;SDS011;11110;52.386;16.940;2023-05-10T04:00:06;23.53;;;6.77;;
21890;SDS011;11110;52.386;16.940;2023-05-10T04:02:42;25.73;;;7.17;;
21890;SDS011;11110;52.386;16.940;2023-05-10T04:05:17;25.33;;;6.87;;
21890;SDS011;11110;52.386;16.940;2023-05-10T04:07:45;26.93;;;7.70;;
21890;SDS011;11110;52.386;16.940;2023-05-10T04:10:17;22.20;;;6.50;;
21890;SDS011;11110;52.386;16.940;2023-05-10T04:12:45;21.63;;;6.40;;
21890;SDS011;11110;52.386;16.940;2023-05-10T04:15:14;21.13;;;6.07;;
21890;SDS011;11110;52.386;16.940;2023-05-10T04:17:42;23.20;;;7.07;;
21890;SDS011;11110;52.386;16.940;2023-05-10T04:20:11;28.40;;;7.13;;
21890;SDS011;11110;52.386;16.940;2023-05-10T04:22:40;25.73;;;6.90;;
21890;SDS011;11110;52.386;16.940;2023-05-10T04:25:10;27.23;;;6.97;;
21890;SDS011;11110;52.386;16.940;2023-05-10T04:27:39;25.43;;;6.83;;
21890;SDS011;11110;52.386;16.940;2023-05-10T04:30:08;23.33;;;6.53;;
21890;SDS011;11110;52.386;16.940;2023-05-10T04:32:37;22.83;;;6.67;;
21890;SDS011;11110;52.386;16.940;2023-05-10T04:35:06;25.10;;;7.73;;
21890;SDS011;11110;52.386;16.940;2023-05-10T04:37:36;34.57;;;8.40;;
21890;SDS011;11110;52.386;16.940;2023-05-10T04:40:06;25.57;;;7.67;;
21890;SDS011;11110;52.386;16.940;2023-05-10T04:42:35;22.60;;;6.50;;
21890;SDS011;11110;52.386;16.940;2023-05-10T04:45:06;19.43;;;6.57;;
21890;SDS011;11110;52.386;16.940;2023-05-10T04:47:36;17.30;;;6.30;;
21890;SDS011;11110;52.386;16.940;2023-05-10T04:50:05;25.43;;;7.40;;
21890;SDS011;11110;52.386;16.940;2023-05-10T04:52:34;22.50;;;7.27;;
21890;SDS011;11110;52.386;16.940;2023-05-10T04:55:03;17.97;;;6.40;;
21890;SDS011;11110;52.386;16.940;2023-05-10T04:57:33;22.27;;;7.10;;
21890;SDS011;11110;52.386;16.940;2023-05-10T05:00:02;26.23;;;7.37;;
21890;SDS011;11110;52.386;16.940;2023-05-10T05:02:34;26.93;;;7.30;;
21890;SDS011;11110;52.386;16.940;2023-05-10T05:05:03;24.40;;;7.90;;
21890;SDS011;11110;52.386;16.940;2023-05-10T05:07:31;25.93;;;7.90;;
21890;SDS011;11110;52.386;16.940;2023-05-10T05:10:00;27.10;;;8.53;;
21890;SDS011;11110;52.386;16.940;2023-05-10T05:12:29;22.13;;;7.57;;
21890;SDS011;11110;52.386;16.940;2023-05-10T05:14:58;32.30;;;7.73;;
21890;SDS011;11110;52.386;16.940;2023-05-10T05:17:28;21.20;;;6.93;;
21890;SDS011;11110;52.386;16.940;2023-05-10T05:19:58;29.00;;;7.10;;
21890;SDS011;11110;52.386;16.940;2023-05-10T05:22:26;26.00;;;8.53;;
21890;SDS011;11110;52.386;16.940;2023-05-10T05:24:55;24.53;;;6.90;;
21890;SDS011;11110;52.386;16.940;2023-05-10T05:27:24;23.47;;;7.20;;
21890;SDS011;11110;52.386;16.940;2023-05-10T05:29:54;20.50;;;7.03;;
21890;SDS011;11110;52.386;16.940;2023-05-10T05:32:23;24.10;;;7.47;;
21890;SDS011;11110;52.386;16.940;2023-05-10T05:34:54;32.13;;;8.23;;
21890;SDS011;11110;52.386;16.940;2023-05-10T05:37:22;20.30;;;6.83;;
21890;SDS011;11110;52.386;16.940;2023-05-10T05:39:51;21.37;;;7.07;;
21890;SDS011;11110;52.386;16.940;2023-05-10T05:42:21;26.33;;;7.23;;
21890;SDS011;11110;52.386;16.940;2023-05-10T05:44:49;24.30;;;7.57;;
21890;SDS011;11110;52.386;16.940;2023-05-10T05:47:18;24.20;;;7.30;;
21890;SDS011;11110;52.386;16.940;2023-05-10T05:49:46;26.63;;;7.23;;
21890;SDS011;11110;52.386;16.940;2023-05-10T05:52:16;28.40;;;8.23;;
21890;SDS011;11110;52.386;16.940;2023-05-10T05:54:45;26.07;;;7.33;;
21890;SDS011;11110;52.386;16.940;2023-05-10T05:57:13;22.83;;;7.43;;
21890;SDS011;11110;52.386;16.940;2023-05-10T05:59:41;25.73;;;7.63;;
21890;SDS011;11110;52.386;16.940;2023-05-10T06:02:10;33.00;;;9.30;;
21890;SDS011;11110;52.386;16.940;2023-05-10T06:04:39;31.17;;;8.27;;
21890;SDS011;11110;52.386;16.940;2023-05-10T06:07:10;30.97;;;8.17;;
21890;SDS011;11110;52.386;16.940;2023-05-10T06:09:40;29.40;;;7.40;;
21890;SDS011;11110;52.386;16.940;2023-05-10T06:12:08;23.30;;;7.50;;
21890;SDS011;11110;52.386;16.940;2023-05-10T06:14:38;21.63;;;6.83;;
21890;SDS011;11110;52.386;16.940;2023-05-10T06:17:06;32.33;;;8.77;;
21890;SDS011;11110;52.386;16.940;2023-05-10T06:19:35;21.67;;;7.33;;
21890;SDS011;11110;52.386;16.940;2023-05-10T06:22:03;20.50;;;6.57;;
21890;SDS011;11110;52.386;16.940;2023-05-10T06:24:32;23.27;;;7.37;;
21890;SDS011;11110;52.386;16.940;2023-05-10T06:27:01;22.63;;;7.60;;
21890;SDS011;11110;52.386;16.940;2023-05-10T06:29:30;22.03;;;7.00;;
21890;SDS011;11110;52.386;16.940;2023-05-10T06:31:59;26.33;;;7.60;;
21890;SDS011;11110;52.386;16.940;2023-05-10T06:34:27;19.47;;;6.83;;
21890;SDS011;11110;52.386;16.940;2023-05-10T06:36:56;26.23;;;7.50;;
21890;SDS011;11110;52.386;16.940;2023-05-10T06:39:24;27.10;;;7.03;;
21890;SDS011;11110;52.386;16.940;2023-05-10T06:41:53;30.30;;;8.13;;
21890;SDS011;11110;52.386;16.940;2023-05-10T06:44:23;25.13;;;7.23;;
21890;SDS011;11110;52.386;16.940;2023-05-10T06:46:51;26.17;;;8.07;;
21890;SDS011;11110;52.386;16.940;2023-05-10T06:49:21;22.20;;;7.13;;
21890;SDS011;11110;52.386;16.940;2023-05-10T06:51:50;18.70;;;6.47;;
21890;SDS011;11110;52.386;16.940;2023-05-10T06:54:18;15.43;;;6.27;;
21890;SDS011;11110;52.386;16.940;2023-05-10T06:56:47;28.87;;;7.60;;
21890;SDS011;11110;52.386;16.940;2023-05-10T06:59:15;23.73;;;6.63;;
21890;SDS011;11110;52.386;16.940;2023-05-10T07:01:47;19.20;;;6.50;;
21890;SDS011;11110;52.386;16.940;2023-05-10T07:04:15;27.63;;;8.10;;
21890;SDS011;11110;52.386;16.940;2023-05-10T07:06:44;24.17;;;7.10;;
21890;SDS011;11110;52.386;16.940;2023-05-10T07:09:13;20.67;;;7.10;;
21890;SDS011;11110;52.386;16.940;2023-05-10T07:11:41;25.67;;;7.97;;
21890;SDS011;11110;52.386;16.940;2023-05-10T07:14:10;22.37;;;6.27;;
21890;SDS011;11110;52.386;16.940;2023-05-10T07:16:38;25.97;;;6.40;;
21890;SDS011;11110;52.386;16.940;2023-05-10T07:19:08;17.93;;;6.57;;
21890;SDS011;11110;52.386;16.940;2023-05-10T07:21:37;25.10;;;7.30;;
21890;SDS011;11110;52.386;16.940;2023-05-10T07:24:06;19.87;;;5.90;;
21890;SDS011;11110;52.386;16.940;2023-05-10T07:26:35;26.97;;;6.87;;
21890;SDS011;11110;52.386;16.940;2023-05-10T07:29:03;25.63;;;7.67;;
21890;SDS011;11110;52.386;16.940;2023-05-10T07:31:32;20.77;;;7.00;;
21890;SDS011;11110;52.386;16.940;2023-05-10T07:34:01;26.33;;;6.57;;
21890;SDS011;11110;52.386;16.940;2023-05-10T07:36:30;23.20;;;6.53;;
21890;SDS011;11110;52.386;16.940;2023-05-10T07:38:59;17.20;;;6.40;;
21890;SDS011;11110;52.386;16.940;2023-05-10T07:41:28;17.77;;;5.63;;
21890;SDS011;11110;52.386;16.940;2023-05-10T07:43:56;17.43;;;5.60;;
21890;SDS011;11110;52.386;16.940;2023-05-10T07:46:25;20.10;;;6.50;;
21890;SDS011;11110;52.386;16.940;2023-05-10T07:48:53;20.20;;;5.73;;
21890;SDS011;11110;52.386;16.940;2023-05-10T07:51:22;28.77;;;7.10;;
21890;SDS011;11110;52.386;16.940;2023-05-10T07:53:51;16.07;;;5.43;;
21890;SDS011;11110;52.386;16.940;2023-05-10T07:56:21;17.30;;;5.40;;
21890;SDS011;11110;52.386;16.940;2023-05-10T07:58:51;20.70;;;5.70;;
21890;SDS011;11110;52.386;16.940;2023-05-10T08:01:20;19.10;;;5.63;;
21890;SDS011;11110;52.386;16.940;2023-05-10T08:03:48;16.33;;;5.40;;
21890;SDS011;11110;52.386;16.940;2023-05-10T08:06:18;27.10;;;6.40;;
21890;SDS011;11110;52.386;16.940;2023-05-10T08:08:47;20.40;;;5.93;;
21890;SDS011;11110;52.386;16.940;2023-05-10T08:11:19;15.68;;;5.75;;
21890;SDS011;11110;52.386;16.940;2023-05-10T08:13:48;18.23;;;6.22;;
21890;SDS011;11110;52.386;16.940;2023-05-10T08:16:18;15.65;;;5.65;;
21890;SDS011;11110;52.386;16.940;2023-05-10T08:18:46;17.00;;;5.15;;
21890;SDS011;11110;52.386;16.940;2023-05-10T08:21:16;18.77;;;5.15;;
21890;SDS011;11110;52.386;16.940;2023-05-10T08:23:44;22.08;;;5.80;;
21890;SDS011;11110;52.386;16.940;2023-05-10T08:26:12;18.50;;;5.13;;
21890;SDS011;11110;52.386;16.940;2023-05-10T08:28:42;19.25;;;5.43;;
21890;SDS011;11110;52.386;16.940;2023-05-10T08:31:11;18.02;;;4.68;;
21890;SDS011;11110;52.386;16.940;2023-05-10T08:33:40;24.00;;;6.18;;
21890;SDS011;11110;52.386;16.940;2023-05-10T08:36:10;13.23;;;4.35;;
21890;SDS011;11110;52.386;16.940;2023-05-10T08:38:40;24.80;;;6.07;;
21890;SDS011;11110;52.386;16.940;2023-05-10T08:41:09;17.52;;;5.13;;
21890;SDS011;11110;52.386;16.940;2023-05-10T08:43:38;20.85;;;5.57;;
21890;SDS011;11110;52.386;16.940;2023-05-10T08:46:09;22.33;;;5.78;;
21890;SDS011;11110;52.386;16.940;2023-05-10T08:48:38;14.02;;;4.30;;
21890;SDS011;11110;52.386;16.940;2023-05-10T08:51:07;18.92;;;5.47;;
21890;SDS011;11110;52.386;16.940;2023-05-10T08:53:38;21.98;;;5.47;;
21890;SDS011;11110;52.386;16.940;2023-05-10T08:56:07;15.48;;;4.50;;
21890;SDS011;11110;52.386;16.940;2023-05-10T08:58:36;16.08;;;4.85;;
21890;SDS011;11110;52.386;16.940;2023-05-10T09:01:05;24.15;;;4.78;;
21890;SDS011;11110;52.386;16.940;2023-05-10T09:03:35;18.65;;;4.55;;
21890;SDS011;11110;52.386;16.940;2023-05-10T09:06:06;15.80;;;4.28;;
21890;SDS011;11110;52.386;16.940;2023-05-10T09:08:35;21.27;;;5.00;;
21890;SDS011;11110;52.386;16.940;2023-05-10T09:11:05;15.70;;;4.47;;
21890;SDS011;11110;52.386;16.940;2023-05-10T09:13:34;16.77;;;4.20;;
21890;SDS011;11110;52.386;16.940;2023-05-10T09:16:04;27.02;;;5.47;;
21890;SDS011;11110;52.386;16.940;2023-05-10T09:18:49;15.30;;;4.05;;
21890;SDS011;11110;52.386;16.940;2023-05-10T09:21:19;21.88;;;4.72;;
21890;SDS011;11110;52.386;16.940;2023-05-10T09:23:47;19.98;;;4.32;;
21890;SDS011;11110;52.386;16.940;2023-05-10T09:26:21;15.63;;;3.83;;
21890;SDS011;11110;52.386;16.940;2023-05-10T09:28:50;17.92;;;3.75;;
21890;SDS011;11110;52.386;16.940;2023-05-10T09:31:20;17.35;;;3.88;;
21890;SDS011;11110;52.386;16.940;2023-05-10T09:33:50;20.05;;;4.10;;
21890;SDS011;11110;52.386;16.940;2023-05-10T09:36:19;20.67;;;4.07;;
21890;SDS011;11110;52.386;16.940;2023-05-10T09:38:48;14.32;;;3.42;;
21890;SDS011;11110;52.386;16.940;2023-05-10T09:41:18;16.42;;;3.88;;
21890;SDS011;11110;52.386;16.940;2023-05-10T09:43:47;23.48;;;4.80;;
21890;SDS011;11110;52.386;16.940;2023-05-10T09:46:16;10.63;;;3.92;;
21890;SDS011;11110;52.386;16.940;2023-05-10T09:48:45;14.20;;;3.88;;
21890;SDS011;11110;52.386;16.940;2023-05-10T09:51:19;11.88;;;3.85;;
21890;SDS011;11110;52.386;16.940;2023-05-10T09:53:48;19.70;;;4.03;;
21890;SDS011;11110;52.386;16.940;2023-05-10T09:56:37;16.23;;;3.80;;
21890;SDS011;11110;52.386;16.940;2023-05-10T09:59:07;17.58;;;4.68;;
21890;SDS011;11110;52.386;16.940;2023-05-10T10:01:37;11.70;;;3.28;;
21890;SDS011;11110;52.386;16.940;2023-05-10T10:04:08;18.58;;;3.97;;
21890;SDS011;11110;52.386;16.940;2023-05-10T10:06:39;12.35;;;3.42;;
21890;SDS011;11110;52.386;16.940;2023-05-10T10:09:08;14.82;;;3.92;;
21890;SDS011;11110;52.386;16.940;2023-05-10T10:11:38;15.85;;;3.50;;
21890;SDS011;11110;52.386;16.940;2023-05-10T10:14:07;11.52;;;3.42;;
21890;SDS011;11110;52.386;16.940;2023-05-10T10:16:37;15.38;;;3.38;;
21890;SDS011;11110;52.386;16.940;2023-05-10T10:19:21;11.05;;;3.10;;
21890;SDS011;11110;52.386;16.940;2023-05-10T10:21:51;13.75;;;3.50;;
21890;SDS011;11110;52.386;16.940;2023-05-10T10:24:20;12.57;;;3.00;;
21890;SDS011;11110;52.386;16.940;2023-05-10T10:26:48;15.13;;;3.50;;
21890;SDS011;11110;52.386;16.940;2023-05-10T10:29:21;13.48;;;3.45;;
21890;SDS011;11110;52.386;16.940;2023-05-10T10:31:55;17.98;;;3.85;;
21890;SDS011;11110;52.386;16.940;2023-05-10T10:34:34;13.05;;;3.20;;
21890;SDS011;11110;52.386;16.940;2023-05-10T10:37:05;13.25;;;3.45;;
21890;SDS011;11110;52.386;16.940;2023-05-10T10:39:34;18.48;;;4.05;;
21890;SDS011;11110;52.386;16.940;2023-05-10T10:42:03;15.23;;;3.67;;
21890;SDS011;11110;52.386;16.940;2023-05-10T10:44:38;18.00;;;3.70;;
21890;SDS011;11110;52.386;16.940;2023-05-10T10:47:21;15.27;;;3.95;;
21890;SDS011;11110;52.386;16.940;2023-05-10T10:49:51;15.73;;;3.38;;
21890;SDS011;11110;52.386;16.940;2023-05-10T10:52:32;17.83;;;3.63;;
21890;SDS011;11110;52.386;16.940;2023-05-10T10:55:02;17.23;;;3.50;;
21890;SDS011;11110;52.386;16.940;2023-05-10T10:57:33;15.93;;;3.78;;
21890;SDS011;11110;52.386;16.940;2023-05-10T11:00:22;15.05;;;4.00;;
21890;SDS011;11110;52.386;16.940;2023-05-10T11:02:52;14.05;;;3.55;;
21890;SDS011;11110;52.386;16.940;2023-05-10T11:05:23;19.48;;;4.18;;
21890;SDS011;11110;52.386;16.940;2023-05-10T11:07:54;15.25;;;3.60;;
21890;SDS011;11110;52.386;16.940;2023-05-10T11:10:24;13.52;;;3.47;;
21890;SDS011;11110;52.386;16.940;2023-05-10T11:12:58;17.83;;;4.13;;
21890;SDS011;11110;52.386;16.940;2023-05-10T11:15:28;15.15;;;3.80;;
21890;SDS011;11110;52.386;16.940;2023-05-10T11:17:58;14.15;;;3.70;;
21890;SDS011;11110;52.386;16.940;2023-05-10T11:20:27;19.95;;;4.68;;
21890;SDS011;11110;52.386;16.940;2023-05-10T11:23:11;14.95;;;3.67;;
21890;SDS011;11110;52.386;16.940;2023-05-10T11:25:42;14.68;;;3.95;;
21890;SDS011;11110;52.386;16.940;2023-05-10T11:28:12;17.73;;;4.68;;
21890;SDS011;11110;52.386;16.940;2023-05-10T11:30:41;8.85;;;3.22;;
21890;SDS011;11110;52.386;16.940;2023-05-10T11:33:14;16.42;;;4.32;;
21890;SDS011;11110;52.386;16.940;2023-05-10T11:35:44;16.50;;;4.22;;
21890;SDS011;11110;52.386;16.940;2023-05-10T11:38:15;22.33;;;4.88;;
21890;SDS011;11110;52.386;16.940;2023-05-10T11:40:43;24.08;;;4.82;;
21890;SDS011;11110;52.386;16.940;2023-05-10T11:43:12;14.35;;;4.30;;
21890;SDS011;11110;52.386;16.940;2023-05-10T11:45:41;15.68;;;3.83;;
21890;SDS011;11110;52.386;16.940;2023-05-10T11:48:10;19.67;;;4.25;;
21890;SDS011;11110;52.386;16.940;2023-05-10T11:50:38;29.05;;;5.43;;
21890;SDS011;11110;52.386;16.940;2023-05-10T11:53:07;9.82;;;3.30;;
21890;SDS011;11110;52.386;16.940;2023-05-10T11:55:37;17.92;;;4.18;;
21890;SDS011;11110;52.386;16.940;2023-05-10T11:58:05;14.95;;;4.07;;
21890;SDS011;11110;52.386;16.940;2023-05-10T12:00:34;21.63;;;4.30;;
21890;SDS011;11110;52.386;16.940;2023-05-10T12:03:02;18.08;;;4.28;;
21890;SDS011;11110;52.386;16.940;2023-05-10T12:05:32;11.10;;;3.88;;
21890;SDS011;11110;52.386;16.940;2023-05-10T12:08:10;18.38;;;4.13;;
21890;SDS011;11110;52.386;16.940;2023-05-10T12:10:41;12.77;;;3.83;;
21890;SDS011;11110;52.386;16.940;2023-05-10T12:13:13;11.52;;;3.30;;
21890;SDS011;11110;52.386;16.940;2023-05-10T12:15:42;15.55;;;4.35;;
21890;SDS011;11110;52.386;16.940;2023-05-10T12:18:11;21.35;;;4.60;;
21890;SDS011;11110;52.386;16.940;2023-05-10T12:20:40;14.23;;;3.80;;
21890;SDS011;11110;52.386;16.940;2023-05-10T12:23:09;19.17;;;4.55;;
21890;SDS011;11110;52.386;16.940;2023-05-10T12:25:38;19.10;;;4.10;;
21890;SDS011;11110;52.386;16.940;2023-05-10T12:28:08;13.35;;;3.97;;
21890;SDS011;11110;52.386;16.940;2023-05-10T12:30:37;10.23;;;3.33;;
21890;SDS011;11110;52.386;16.940;2023-05-10T12:33:09;15.85;;;4.53;;
21890;SDS011;11110;52.386;16.940;2023-05-10T12:35:45;10.80;;;3.70;;
21890;SDS011;11110;52.386;16.940;2023-05-10T12:38:27;12.60;;;3.85;;
21890;SDS011;11110;52.386;16.940;2023-05-10T12:40:57;10.40;;;3.53;;
21890;SDS011;11110;52.386;16.940;2023-05-10T12:43:29;13.05;;;3.90;;
21890;SDS011;11110;52.386;16.940;2023-05-10T12:45:58;12.27;;;4.20;;
21890;SDS011;11110;52.386;16.940;2023-05-10T12:48:31;9.40;;;3.28;;
21890;SDS011;11110;52.386;16.940;2023-05-10T12:51:01;12.23;;;3.50;;
21890;SDS011;11110;52.386;16.940;2023-05-10T12:53:30;15.23;;;4.03;;
21890;SDS011;11110;52.386;16.940;2023-05-10T12:55:58;10.23;;;3.42;;
21890;SDS011;11110;52.386;16.940;2023-05-10T12:58:28;17.90;;;4.28;;
21890;SDS011;11110;52.386;16.940;2023-05-10T13:01:01;22.48;;;4.57;;
21890;SDS011;11110;52.386;16.940;2023-05-10T13:03:32;11.02;;;4.45;;
21890;SDS011;11110;52.386;16.940;2023-05-10T13:06:00;15.02;;;4.75;;
21890;SDS011;11110;52.386;16.940;2023-05-10T13:08:32;14.80;;;4.40;;
21890;SDS011;11110;52.386;16.940;2023-05-10T13:11:13;10.90;;;3.50;;
21890;SDS011;11110;52.386;16.940;2023-05-10T13:13:44;17.50;;;4.25;;
21890;SDS011;11110;52.386;16.940;2023-05-10T13:16:13;13.77;;;4.28;;
21890;SDS011;11110;52.386;16.940;2023-05-10T13:18:44;10.80;;;3.75;;
21890;SDS011;11110;52.386;16.940;2023-05-10T13:21:12;12.95;;;4.05;;
21890;SDS011;11110;52.386;16.940;2023-05-10T13:23:43;8.93;;;3.45;;
21890;SDS011;11110;52.386;16.940;2023-05-10T13:26:13;10.80;;;3.45;;
21890;SDS011;11110;52.386;16.940;2023-05-10T13:28:41;13.88;;;4.10;;
21890;SDS011;11110;52.386;16.940;2023-05-10T13:31:11;12.25;;;3.47;;
21890;SDS011;11110;52.386;16.940;2023-05-10T13:33:39;18.83;;;4.80;;
21890;SDS011;11110;52.386;16.940;2023-05-10T13:36:08;11.18;;;3.42;;
21890;SDS011;11110;52.386;16.940;2023-05-10T13:38:36;11.65;;;3.28;;
21890;SDS011;11110;52.386;16.940;2023-05-10T13:41:05;13.55;;;3.83;;
21890;SDS011;11110;52.386;16.940;2023-05-10T13:43:33;8.73;;;3.88;;
21890;SDS011;11110;52.386;16.940;2023-05-10T13:46:02;11.20;;;3.65;;
21890;SDS011;11110;52.386;16.940;2023-05-10T13:48:35;12.77;;;3.67;;
21890;SDS011;11110;52.386;16.940;2023-05-10T13:51:04;14.07;;;3.90;;
21890;SDS011;11110;52.386;16.940;2023-05-10T13:53:33;13.18;;;3.97;;
21890;SDS011;11110;52.386;16.940;2023-05-10T13:56:01;17.48;;;4.60;;
21890;SDS011;11110;52.386;16.940;2023-05-10T13:58:30;16.80;;;4.72;;
21890;SDS011;11110;52.386;16.940;2023-05-10T14:00:58;16.13;;;4.50;;
21890;SDS011;11110;52.386;16.940;2023-05-10T14:03:27;11.20;;;3.95;;
21890;SDS011;11110;52.386;16.940;2023-05-10T14:05:57;12.40;;;4.03;;
21890;SDS011;11110;52.386;16.940;2023-05-10T14:08:26;14.45;;;4.40;;
21890;SDS011;11110;52.386;16.940;2023-05-10T14:10:55;13.00;;;3.90;;
21890;SDS011;11110;52.386;16.940;2023-05-10T14:13:24;12.55;;;4.32;;
21890;SDS011;11110;52.386;16.940;2023-05-10T14:15:53;11.68;;;3.60;;
21890;SDS011;11110;52.386;16.940;2023-05-10T14:18:22;9.13;;;3.30;;
21890;SDS011;11110;52.386;16.940;2023-05-10T14:20:50;18.55;;;8.95;;
21890;SDS011;11110;52.386;16.940;2023-05-10T14:23:20;12.23;;;4.22;;
21890;SDS011;11110;52.386;16.940;2023-05-10T14:25:50;11.18;;;4.10;;
21890;SDS011;11110;52.386;16.940;2023-05-10T14:28:19;9.55;;;3.70;;
21890;SDS011;11110;52.386;16.940;2023-05-10T14:30:49;11.57;;;4.43;;
21890;SDS011;11110;52.386;16.940;2023-05-10T14:33:21;9.35;;;3.67;;
21890;SDS011;11110;52.386;16.940;2023-05-10T14:35:53;11.88;;;4.18;;
21890;SDS011;11110;52.386;16.940;2023-05-10T14:38:30;11.02;;;3.92;;
21890;SDS011;11110;52.386;16.940;2023-05-10T14:40:59;15.88;;;4.18;;
21890;SDS011;11110;52.386;16.940;2023-05-10T14:43:32;9.65;;;3.97;;
21890;SDS011;11110;52.386;16.940;2023-05-10T14:46:02;13.07;;;4.15;;
21890;SDS011;11110;52.386;16.940;2023-05-10T14:48:35;11.55;;;3.80;;